createdAt,value
2019-02-25T00:00:32.587Z,966.53
2019-02-25T00:03:03.675Z,962.27
2019-02-25T00:05:34.794Z,980.30
2019-02-25T00:08:05.911Z,956.10
2019-02-25T00:10:37.019Z,942.67
2019-02-25T00:13:08.111Z,942.50
2019-02-25T00:15:39.543Z,938.83
2019-02-25T00:18:11.290Z,944.93
2019-02-25T00:20:42.400Z,947.93
2019-02-25T00:23:13.578Z,965.07
2019-02-25T00:25:44.665Z,922.30
2019-02-25T00:28:15.858Z,945.63
2019-02-25T00:30:47.005Z,960.60
2019-02-25T00:33:19.369Z,926.07
2019-02-25T00:35:50.512Z,934.27
2019-02-25T00:38:21.622Z,944.93
2019-02-25T00:40:52.746Z,951.37
2019-02-25T00:43:24.474Z,953.47
2019-02-25T00:45:55.871Z,966.93
2019-02-25T00:48:27.000Z,979.50
2019-02-25T00:50:59.142Z,988.13
2019-02-25T00:53:31.240Z,959.70
2019-02-25T00:56:02.385Z,957.87
2019-02-25T00:58:33.574Z,971.30
2019-02-25T01:01:04.851Z,968.50
2019-02-25T01:03:36.060Z,973.53
2019-02-25T01:06:07.297Z,983.50
2019-02-25T01:08:38.460Z,948.07
2019-02-25T01:11:09.587Z,960.93
2019-02-25T01:13:40.799Z,952.77
2019-02-25T01:16:11.954Z,975.10
2019-02-25T01:18:43.117Z,945.43
2019-02-25T01:21:14.491Z,958.23
2019-02-25T01:23:48.894Z,942.63
2019-02-25T01:26:20.507Z,938.57
2019-02-25T01:28:52.764Z,919.33
2019-02-25T01:31:24.908Z,895.07
2019-02-25T01:33:57.411Z,900.40
2019-02-25T01:36:28.615Z,922.23
2019-02-25T01:38:59.752Z,876.07
2019-02-25T01:41:30.977Z,902.47
2019-02-25T01:44:02.133Z,914.93
2019-02-25T01:46:33.243Z,873.30
2019-02-25T01:49:04.494Z,879.63
2019-02-25T01:51:37.186Z,874.80
2019-02-25T01:54:09.542Z,863.80
2019-02-25T01:56:40.695Z,854.37
2019-02-25T01:59:12.210Z,854.87
2019-02-25T02:01:44.074Z,831.27
2019-02-25T02:04:15.213Z,850.80
2019-02-25T02:06:46.325Z,851.60
2019-02-25T02:09:17.480Z,852.40
2019-02-25T02:11:48.615Z,848.93
2019-02-25T02:14:20.298Z,835.50
2019-02-25T02:16:51.910Z,829.87
2019-02-25T02:19:23.800Z,830.20
2019-02-25T02:21:55.321Z,848.83
2019-02-25T02:24:26.841Z,830.13
2019-02-25T02:26:58.334Z,830.70
2019-02-25T02:29:29.856Z,827.47
2019-02-25T02:32:01.324Z,808.23
2019-02-25T02:34:32.740Z,814.47
2019-02-25T02:37:04.509Z,806.33
2019-02-25T02:39:35.988Z,814.63
2019-02-25T02:42:23.803Z,806.97
2019-02-25T02:45:02.354Z,802.17
2019-02-25T02:48:08.749Z,771.17
2019-02-25T02:50:40.213Z,753.20
2019-02-25T02:53:11.701Z,791.37
2019-02-25T02:55:43.135Z,787.60
2019-02-25T02:58:14.584Z,755.50
2019-02-25T03:00:48.289Z,771.37
2019-02-25T03:03:20.654Z,791.50
2019-02-25T03:05:52.193Z,792.43
2019-02-25T03:08:23.863Z,765.67
2019-02-25T03:10:57.285Z,776.30
2019-02-25T03:13:28.928Z,769.40
2019-02-25T03:16:00.770Z,775.67
2019-02-25T03:18:32.305Z,762.43
2019-02-25T03:21:03.505Z,788.33
2019-02-25T03:23:35.302Z,758.13
2019-02-25T03:26:06.437Z,765.10
2019-02-25T03:28:37.913Z,780.30
2019-02-25T03:31:09.084Z,755.80
2019-02-25T03:33:40.179Z,764.17
2019-02-25T03:36:11.929Z,734.83
2019-02-25T03:38:43.319Z,766.10
2019-02-25T03:41:14.464Z,749.23
2019-02-25T03:43:45.618Z,744.83
2019-02-25T03:46:16.775Z,743.37
2019-02-25T03:48:48.850Z,749.40
2019-02-25T03:51:20.060Z,755.93
2019-02-25T03:53:51.198Z,690.07
2019-02-25T03:56:23.342Z,571.83
2019-02-25T03:58:54.451Z,550.83
2019-02-25T04:01:28.225Z,583.60
2019-02-25T04:03:59.337Z,580.90
2019-02-25T04:06:31.478Z,579.47
2019-02-25T04:09:02.687Z,599.97
2019-02-25T04:11:33.933Z,607.30
2019-02-25T04:14:05.096Z,615.10
2019-02-25T04:16:36.345Z,603.90
2019-02-25T04:19:07.463Z,586.07
2019-02-25T04:21:38.627Z,607.73
2019-02-25T04:24:09.844Z,632.97
2019-02-25T04:26:41.302Z,624.07
2019-02-25T04:29:12.369Z,618.60
2019-02-25T04:31:43.512Z,620.83
2019-02-25T04:34:14.896Z,590.50
2019-02-25T04:36:46.067Z,622.17
2019-02-25T04:39:17.240Z,593.90
2019-02-25T04:41:48.697Z,590.20
2019-02-25T04:44:20.315Z,606.97
2019-02-25T04:46:51.431Z,608.17
2019-02-25T04:49:22.675Z,562.97
2019-02-25T04:51:53.850Z,572.43
2019-02-25T04:56:55.587Z,603.10
2019-02-25T04:59:26.731Z,604.97
2019-02-25T05:01:57.846Z,617.40
2019-02-25T05:04:29.226Z,598.33
2019-02-25T05:07:00.896Z,594.27
2019-02-25T05:09:32.277Z,612.60
2019-02-25T05:12:03.726Z,596.30
2019-02-25T05:14:34.850Z,589.53
2019-02-25T05:17:06.448Z,567.47
2019-02-25T05:19:37.980Z,586.37
2019-02-25T05:22:09.575Z,624.50
2019-02-25T05:24:41.045Z,601.77
2019-02-25T05:27:12.529Z,572.43
2019-02-25T05:29:43.640Z,605.33
2019-02-25T05:32:15.017Z,597.47
2019-02-25T05:34:46.123Z,608.13
2019-02-25T05:37:17.247Z,583.53
2019-02-25T05:39:48.335Z,584.43
2019-02-25T05:42:19.536Z,591.57
2019-02-25T05:44:51.204Z,604.63
2019-02-25T05:47:22.663Z,604.43
2019-02-25T05:49:54.328Z,576.90
2019-02-25T05:52:25.765Z,597.20
2019-02-25T05:54:57.372Z,601.80
2019-02-25T05:57:28.949Z,611.23
2019-02-25T06:00:00.560Z,580.57
2019-02-25T06:02:32.065Z,602.37
2019-02-25T06:05:03.693Z,606.73
2019-02-25T06:07:35.207Z,621.27
2019-02-25T06:10:07.503Z,590.13
2019-02-25T06:12:39.097Z,593.67
2019-02-25T06:15:11.846Z,629.30
2019-02-25T06:17:43.367Z,607.93
2019-02-25T06:20:15.471Z,612.50
2019-02-25T06:22:47.184Z,615.17
2019-02-25T06:25:18.931Z,614.50
2019-02-25T06:27:50.446Z,600.07
2019-02-25T06:30:22.364Z,598.57
2019-02-25T06:32:53.808Z,618.23
2019-02-25T06:35:25.513Z,617.27
2019-02-25T06:37:56.913Z,606.00
2019-02-25T06:40:28.576Z,626.40
2019-02-25T06:43:00.084Z,595.90
2019-02-25T06:45:31.774Z,617.77
2019-02-25T06:48:03.382Z,605.40
2019-02-25T06:50:34.985Z,632.97
2019-02-25T06:53:06.481Z,601.87
2019-02-25T06:55:42.651Z,633.10
2019-02-25T06:58:14.229Z,619.07
2019-02-25T07:00:46.291Z,622.50
2019-02-25T07:03:19.092Z,616.80
2019-02-25T07:06:17.978Z,617.10
2019-02-25T07:09:01.700Z,588.87
2019-02-25T07:11:47.048Z,610.73
2019-02-25T07:14:38.091Z,602.27
2019-02-25T07:17:31.430Z,582.23
2019-02-25T07:20:32.571Z,562.23
2019-02-25T07:23:25.929Z,552.77
2019-02-25T07:26:15.299Z,549.67
2019-02-25T07:28:53.750Z,541.70
2019-02-25T07:31:43.489Z,512.30
2019-02-25T07:34:46.074Z,539.30
2019-02-25T07:37:36.576Z,553.47
2019-02-25T07:40:23.789Z,586.33
2019-02-25T07:43:20.231Z,626.77
2019-02-25T07:46:11.747Z,607.73
2019-02-25T07:49:00.959Z,604.10
2019-02-25T07:51:39.953Z,617.47
2019-02-25T07:54:32.810Z,622.83
2019-02-25T07:57:13.947Z,601.57
2019-02-25T07:59:56.613Z,650.10
2019-02-25T08:02:58.803Z,664.77
2019-02-25T08:05:51.709Z,627.27
2019-02-25T08:08:41.587Z,683.17
2019-02-25T08:11:31.500Z,674.27
2019-02-25T08:14:24.648Z,724.10
2019-02-25T08:17:17.552Z,657.83
2019-02-25T08:20:07.432Z,626.33
2019-02-25T08:22:56.682Z,618.37
2019-02-25T08:25:49.656Z,650.50
2019-02-25T08:28:38.381Z,647.70
2019-02-25T08:31:32.069Z,650.90
2019-02-25T08:34:28.381Z,620.53
2019-02-25T08:37:57.555Z,579.47
2019-02-25T08:41:10.465Z,606.20
2019-02-25T08:44:12.267Z,587.90
2019-02-25T08:46:50.623Z,504.63
2019-02-25T08:49:28.564Z,591.80
2019-02-25T08:51:59.723Z,591.70
2019-02-25T08:54:30.941Z,613.97
2019-02-25T08:57:02.257Z,644.33
2019-02-25T08:59:33.374Z,624.10
2019-02-25T09:02:04.515Z,704.77
2019-02-25T09:04:35.610Z,795.90
2019-02-25T09:07:06.853Z,785.57
2019-02-25T09:09:38.271Z,725.87
2019-02-25T09:12:09.763Z,784.47
2019-02-25T09:14:41.404Z,812.53
2019-02-25T09:17:12.944Z,851.03
2019-02-25T09:19:44.439Z,820.47
2019-02-25T09:22:15.971Z,842.33
2019-02-25T09:24:47.501Z,847.73
2019-02-25T09:27:19.085Z,882.37
2019-02-25T09:29:50.592Z,918.80
2019-02-25T09:32:21.814Z,914.20
2019-02-25T09:34:53.532Z,905.47
2019-02-25T09:37:25.167Z,910.57
2019-02-25T09:39:56.606Z,898.47
2019-02-25T09:42:28.811Z,920.20
2019-02-25T09:45:00.421Z,916.03
2019-02-25T09:47:31.898Z,911.70
2019-02-25T09:50:03.585Z,915.70
2019-02-25T09:52:35.025Z,913.23
2019-02-25T09:55:06.975Z,907.27
2019-02-25T09:57:41.240Z,898.23
2019-02-25T10:00:15.978Z,891.47
2019-02-25T10:02:47.497Z,871.67
2019-02-25T10:05:19.180Z,814.67
2019-02-25T10:07:50.703Z,875.00
2019-02-25T10:10:22.823Z,872.07
2019-02-25T10:12:56.587Z,872.60
2019-02-25T10:15:28.285Z,732.33
2019-02-25T10:17:59.660Z,750.07
2019-02-25T10:20:31.157Z,742.83
2019-02-25T10:23:02.661Z,694.03
2019-02-25T10:25:34.189Z,703.33
2019-02-25T10:28:06.872Z,775.33
2019-02-25T10:30:38.404Z,766.67
2019-02-25T10:33:10.121Z,688.83
2019-02-25T10:35:41.477Z,713.53
2019-02-25T10:38:13.179Z,717.83
2019-02-25T10:40:45.463Z,576.00
2019-02-25T10:43:17.946Z,590.17
2019-02-25T10:45:49.442Z,590.03
2019-02-25T10:48:21.601Z,594.83
2019-02-25T10:50:56.323Z,653.07
2019-02-25T10:53:27.397Z,679.03
2019-02-25T10:56:14.341Z,591.57
2019-02-25T10:58:45.854Z,540.00
2019-02-25T11:01:19.680Z,625.17
2019-02-25T11:03:52.051Z,593.27
2019-02-25T11:06:27.346Z,768.77
2019-02-25T11:09:07.033Z,687.50
2019-02-25T11:11:40.491Z,620.77
2019-02-25T11:14:12.317Z,615.47
2019-02-25T11:16:46.002Z,616.90
2019-02-25T11:19:19.548Z,631.93
2019-02-25T11:21:50.951Z,564.97
2019-02-25T11:24:25.417Z,630.77
2019-02-25T11:26:57.317Z,772.13
2019-02-25T11:29:29.506Z,604.43
2019-02-25T11:32:00.665Z,619.20
2019-02-25T11:34:33.591Z,678.73
2019-02-25T11:37:04.579Z,730.23
2019-02-25T11:39:37.250Z,746.77
2019-02-25T11:42:10.858Z,745.83
2019-02-25T11:44:43.994Z,611.57
2019-02-25T11:47:15.163Z,765.80
2019-02-25T11:49:46.307Z,679.53
2019-02-25T11:52:18.211Z,697.63
2019-02-25T11:54:49.540Z,618.13
2019-02-25T11:57:20.710Z,636.37
2019-02-25T11:59:53.414Z,731.80
2019-02-25T12:02:25.890Z,499.63
2019-02-25T12:04:58.952Z,636.13
2019-02-25T12:07:30.170Z,596.63
2019-02-25T12:10:01.272Z,592.67
2019-02-25T12:12:32.818Z,513.10
2019-02-25T12:15:05.397Z,449.30
2019-02-25T12:17:36.535Z,575.23
2019-02-25T12:20:09.099Z,573.77
2019-02-25T12:22:40.889Z,527.13
2019-02-25T12:25:13.750Z,524.47
2019-02-25T12:27:45.440Z,480.30
2019-02-25T12:30:19.245Z,475.80
2019-02-25T12:32:50.891Z,561.70
2019-02-25T12:35:23.066Z,562.47
2019-02-25T12:37:55.291Z,586.07
2019-02-25T12:40:27.375Z,459.17
2019-02-25T12:43:00.621Z,552.80
2019-02-25T12:45:32.685Z,540.53
2019-02-25T12:48:07.667Z,462.30
2019-02-25T12:50:39.500Z,516.50
2019-02-25T12:53:11.209Z,573.30
2019-02-25T12:55:42.696Z,507.97
2019-02-25T12:58:15.467Z,472.63
2019-02-25T13:00:47.790Z,559.63
2019-02-25T13:03:19.136Z,436.87
2019-02-25T13:05:50.975Z,508.53
2019-02-25T13:08:22.576Z,610.43
2019-02-25T13:10:54.260Z,529.93
2019-02-25T13:13:30.686Z,512.00
2019-02-25T13:16:01.871Z,507.40
2019-02-25T13:18:34.420Z,207.40
2019-02-25T13:21:05.542Z,166.60
2019-02-25T13:23:38.434Z,120.63
2019-02-25T13:26:10.122Z,115.07
2019-02-25T13:28:41.340Z,63.83
2019-02-25T13:31:13.607Z,38.27
2019-02-25T13:33:44.785Z,41.63
2019-02-25T13:36:16.084Z,64.57
2019-02-25T13:38:47.338Z,301.80
2019-02-25T13:41:18.586Z,911.20
2019-02-25T13:43:50.546Z,436.13
2019-02-25T13:46:22.041Z,237.03
2019-02-25T13:48:53.937Z,238.17
2019-02-25T13:51:27.044Z,219.83
2019-02-25T13:53:58.750Z,826.93
2019-02-25T13:56:31.878Z,999.90
2019-02-25T13:59:03.555Z,999.90
2019-02-25T14:01:35.367Z,999.90
2019-02-25T14:04:07.756Z,999.90
2019-02-25T14:06:39.264Z,890.60
2019-02-25T14:09:12.089Z,806.47
2019-02-25T14:11:45.075Z,772.73
2019-02-25T14:14:16.330Z,881.70
2019-02-25T14:16:47.462Z,952.23
2019-02-25T14:19:19.069Z,999.90
2019-02-25T14:21:50.202Z,997.13
2019-02-25T14:24:22.400Z,930.37
2019-02-25T14:26:54.711Z,999.90
2019-02-25T14:29:26.576Z,999.90
2019-02-25T14:31:57.988Z,999.90
2019-02-25T14:34:29.451Z,999.90
2019-02-25T14:37:04.647Z,999.90
2019-02-25T14:39:37.813Z,999.90
2019-02-25T14:42:13.335Z,999.90
2019-02-25T14:44:45.981Z,999.90
2019-02-25T14:47:22.495Z,999.90
2019-02-25T14:49:51.147Z,999.90
2019-02-25T14:52:24.470Z,999.90
2019-02-25T14:54:57.391Z,999.90
2019-02-25T14:57:30.832Z,999.90
2019-02-25T15:00:03.913Z,999.90
2019-02-25T15:02:35.660Z,999.90
2019-02-25T15:05:10.846Z,999.90
2019-02-25T15:07:42.904Z,999.90
2019-02-25T15:10:17.386Z,999.90
2019-02-25T15:12:58.761Z,999.90
2019-02-25T15:15:28.800Z,999.90
2019-02-25T15:18:00.033Z,999.90
2019-02-25T15:20:33.002Z,999.90
2019-02-25T15:23:04.334Z,999.90
2019-02-25T15:25:37.231Z,999.90
2019-02-25T15:28:11.384Z,991.10
2019-02-25T15:30:42.094Z,975.07
2019-02-25T15:33:14.409Z,964.17
2019-02-25T15:35:46.072Z,938.17
2019-02-25T15:38:18.664Z,934.83
2019-02-25T15:40:50.562Z,922.70
2019-02-25T15:43:23.273Z,904.03
2019-02-25T15:45:55.421Z,902.87
2019-02-25T15:48:28.895Z,923.23
2019-02-25T15:51:01.304Z,971.97
2019-02-25T15:53:33.706Z,896.37
2019-02-25T15:56:08.119Z,981.07
2019-02-25T15:58:40.491Z,999.90
2019-02-25T16:01:12.614Z,999.90
2019-02-25T16:03:44.257Z,999.90
2019-02-25T16:06:15.807Z,999.90
2019-02-25T16:08:50.403Z,999.90
2019-02-25T16:11:25.655Z,999.90
2019-02-25T16:13:57.922Z,999.90
2019-02-25T16:16:31.450Z,999.90
2019-02-25T16:19:05.964Z,999.90
2019-02-25T16:21:41.019Z,999.90
2019-02-25T16:24:14.194Z,999.90
2019-02-25T16:26:48.665Z,999.90
2019-02-25T16:29:19.877Z,999.90
2019-02-25T16:31:57.499Z,999.90
2019-02-25T16:34:29.178Z,999.90
2019-02-25T16:37:04.746Z,999.90
2019-02-25T16:39:36.831Z,999.90
2019-02-25T16:42:08.379Z,999.90
2019-02-25T16:44:39.748Z,999.90
2019-02-25T16:47:12.191Z,999.90
2019-02-25T16:49:45.894Z,999.90
2019-02-25T16:52:18.417Z,999.90
2019-02-25T16:54:50.895Z,999.90
2019-02-25T16:57:24.645Z,997.90
2019-02-25T16:59:57.592Z,987.13
2019-02-25T17:02:30.101Z,988.00
2019-02-25T17:05:02.791Z,958.20
2019-02-25T17:07:34.451Z,928.03
2019-02-25T17:10:06.529Z,882.80
2019-02-25T17:12:38.072Z,884.00
2019-02-25T17:15:12.506Z,900.57
2019-02-25T17:17:43.624Z,984.80
2019-02-25T17:20:16.302Z,999.90
2019-02-25T17:22:48.886Z,999.90
2019-02-25T17:25:20.164Z,999.90
2019-02-25T17:27:51.336Z,999.90
2019-02-25T17:30:24.061Z,999.90
2019-02-25T17:32:55.324Z,999.90
2019-02-25T17:35:28.450Z,999.90
2019-02-25T17:38:05.400Z,999.90
2019-02-25T17:40:37.652Z,999.90
2019-02-25T17:43:10.779Z,999.90
2019-02-25T17:45:42.103Z,999.90
2019-02-25T17:48:16.124Z,999.90
2019-02-25T17:50:49.722Z,999.90
2019-02-25T17:53:22.365Z,999.90
2019-02-25T17:55:55.441Z,999.90
2019-02-25T17:58:27.811Z,999.90
2019-02-25T18:01:01.055Z,999.90
2019-02-25T18:03:37.470Z,999.90
2019-02-25T18:06:08.687Z,999.90
2019-02-25T18:08:39.871Z,999.90
2019-02-25T18:11:13.455Z,999.90
2019-02-25T18:13:46.713Z,999.90
2019-02-25T18:16:18.988Z,999.90
2019-02-25T18:18:51.972Z,999.90
2019-02-25T18:21:28.264Z,998.83
2019-02-25T18:23:58.436Z,981.83
2019-02-25T18:26:31.022Z,984.80
2019-02-25T18:29:02.785Z,999.90
2019-02-25T18:31:34.371Z,999.90
2019-02-25T18:34:06.914Z,999.90
2019-02-25T18:36:39.144Z,999.90
2019-02-25T18:39:17.251Z,999.90
2019-02-25T18:41:50.341Z,999.90
2019-02-25T18:44:21.482Z,999.90
2019-02-25T18:46:52.987Z,999.90
2019-02-25T18:49:26.630Z,999.90
2019-02-25T18:51:58.451Z,999.90
2019-02-25T18:54:29.652Z,999.90
2019-02-25T18:57:03.311Z,999.90
2019-02-25T18:59:35.272Z,999.90
2019-02-25T19:02:07.984Z,999.90
2019-02-25T19:04:41.769Z,999.90
2019-02-25T19:07:14.393Z,999.90
2019-02-25T19:09:47.075Z,999.90
2019-02-25T19:12:18.781Z,999.90
2019-02-25T19:14:52.997Z,999.90
2019-02-25T19:17:23.855Z,999.90
2019-02-25T19:19:56.216Z,999.90
2019-02-25T19:22:28.341Z,999.90
2019-02-25T19:24:59.694Z,999.90
2019-02-25T19:27:31.641Z,999.90
2019-02-25T19:30:05.541Z,999.90
2019-02-25T19:32:39.899Z,999.90
2019-02-25T19:35:10.523Z,999.90
2019-02-25T19:37:42.700Z,999.90
2019-02-25T19:40:19.544Z,999.90
2019-02-25T19:42:51.604Z,999.90
2019-02-25T19:45:25.183Z,999.90
2019-02-25T19:48:00.049Z,999.90
2019-02-25T19:50:32.383Z,999.90
2019-02-25T19:53:07.627Z,999.90
2019-02-25T19:55:40.853Z,999.90
2019-02-25T19:58:12.709Z,999.90
2019-02-25T20:00:50.405Z,999.90
2019-02-25T20:03:19.854Z,999.90
2019-02-25T20:05:53.835Z,999.90
2019-02-25T20:08:24.663Z,999.90
2019-02-25T20:10:56.077Z,999.90
2019-02-25T20:13:28.469Z,999.90
2019-02-25T20:16:07.618Z,999.90
2019-02-25T20:18:34.983Z,999.90
2019-02-25T20:21:07.810Z,999.90
2019-02-25T20:23:38.571Z,999.90
2019-02-25T20:26:13.292Z,999.90
2019-02-25T20:28:43.844Z,999.90
2019-02-25T20:31:16.769Z,999.90
2019-02-25T20:33:50.349Z,999.90
2019-02-25T20:36:24.187Z,999.90
2019-02-25T20:38:55.579Z,999.90
2019-02-25T20:41:28.756Z,999.90
2019-02-25T20:44:00.720Z,999.90
2019-02-25T20:46:34.944Z,999.90
2019-02-25T20:49:07.106Z,999.90
2019-02-25T20:51:38.936Z,999.90
2019-02-25T20:54:11.716Z,999.90
2019-02-25T20:56:44.416Z,999.90
2019-02-25T20:59:20.953Z,999.90
2019-02-25T21:01:52.793Z,999.90
2019-02-25T21:04:27.675Z,999.90
2019-02-25T21:07:02.158Z,999.90
2019-02-25T21:09:42.286Z,999.90
2019-02-25T21:12:18.474Z,999.90
2019-02-25T21:14:50.691Z,999.90
2019-02-25T21:17:23.163Z,999.90
2019-02-25T21:20:00.404Z,999.90
2019-02-25T21:22:38.423Z,999.90
2019-02-25T21:25:12.411Z,999.90
2019-02-25T21:27:45.355Z,999.90
2019-02-25T21:30:20.959Z,999.90
2019-02-25T21:32:54.393Z,999.90
2019-02-25T21:35:30.138Z,999.90
2019-02-25T21:38:06.567Z,999.90
2019-02-25T21:40:46.244Z,999.90
2019-02-25T21:43:28.435Z,999.90
2019-02-25T21:46:01.273Z,929.37
2019-02-25T21:48:34.811Z,964.90
2019-02-25T21:51:09.595Z,948.90
2019-02-25T21:53:41.311Z,938.07
2019-02-25T21:56:13.091Z,918.83
2019-02-25T21:58:46.724Z,938.33
2019-02-25T22:01:18.904Z,953.80
2019-02-25T22:03:52.978Z,927.33
2019-02-25T22:06:28.604Z,912.13
2019-02-25T22:09:03.003Z,919.83
2019-02-25T22:11:34.102Z,936.30
2019-02-25T22:14:05.445Z,899.60
2019-02-25T22:16:44.151Z,916.17
2019-02-25T22:19:14.190Z,893.17
2019-02-25T22:21:45.965Z,893.13
2019-02-25T22:24:18.643Z,844.87
2019-02-25T22:26:51.583Z,908.93
2019-02-25T22:29:24.232Z,797.87
2019-02-25T22:31:55.663Z,944.30
2019-02-25T22:34:27.021Z,845.83
2019-02-25T22:36:58.203Z,824.13
2019-02-25T22:39:30.289Z,941.33
2019-02-25T22:42:03.592Z,924.37
2019-02-25T22:44:37.240Z,943.87
2019-02-25T22:47:09.785Z,920.40
2019-02-25T22:49:42.604Z,923.83
2019-02-25T22:52:13.763Z,933.73
2019-02-25T22:54:45.881Z,909.93
2019-02-25T22:57:25.715Z,888.70
2019-02-25T22:59:57.081Z,881.27
2019-02-25T23:02:28.272Z,895.93
2019-02-25T23:04:59.418Z,911.70
2019-02-25T23:07:30.703Z,882.13
2019-02-25T23:10:01.847Z,877.77
2019-02-25T23:12:34.108Z,898.97
2019-02-25T23:15:06.994Z,903.67
2019-02-25T23:17:40.129Z,884.10
2019-02-25T23:20:11.209Z,879.53
2019-02-25T23:22:42.434Z,904.90
2019-02-25T23:25:13.935Z,885.93
2019-02-25T23:27:45.023Z,888.60
2019-02-25T23:30:18.255Z,883.53
2019-02-25T23:32:49.331Z,869.77
2019-02-25T23:35:21.166Z,883.50
2019-02-25T23:37:56.383Z,873.00
2019-02-25T23:40:31.284Z,872.13
2019-02-25T23:43:02.998Z,902.77
2019-02-25T23:45:35.604Z,885.50
2019-02-25T23:48:09.007Z,877.70
2019-02-25T23:50:39.401Z,877.03
2019-02-25T23:53:11.649Z,851.60
2019-02-25T23:55:45.092Z,894.30
2019-02-25T23:58:17.815Z,854.87
